sensor_id;sensor_type;location;lat;lon;timestamp;temperature;humidity
69335;SHT31;56477;52.742;15.242;2023-11-21T00:00:38;6.81;99.99
69335;SHT31;56477;52.742;15.242;2023-11-21T00:03:23;6.78;99.99
69335;SHT31;56477;52.742;15.242;2023-11-21T00:05:50;6.71;99.99
69335;SHT31;56477;52.742;15.242;2023-11-21T00:08:16;6.71;99.99
69335;SHT31;56477;52.742;15.242;2023-11-21T00:10:42;6.63;99.99
69335;SHT31;56477;52.742;15.242;2023-11-21T00:13:08;6.58;99.99
69335;SHT31;56477;52.742;15.242;2023-11-21T00:15:35;6.54;99.99
69335;SHT31;56477;52.742;15.242;2023-11-21T00:18:00;6.49;99.99
69335;SHT31;56477;52.742;15.242;2023-11-21T00:20:27;6.48;99.99
69335;SHT31;56477;52.742;15.242;2023-11-21T00:22:53;6.38;99.99
69335;SHT31;56477;52.742;15.242;2023-11-21T00:25:19;6.27;99.99
69335;SHT31;56477;52.742;15.242;2023-11-21T00:27:45;6.26;99.99
69335;SHT31;56477;52.742;15.242;2023-11-21T00:30:12;6.21;99.99
69335;SHT31;56477;52.742;15.242;2023-11-21T00:32:38;6.21;99.99
69335;SHT31;56477;52.742;15.242;2023-11-21T00:35:04;6.20;99.99
69335;SHT31;56477;52.742;15.242;2023-11-21T00:37:31;6.14;99.99
69335;SHT31;56477;52.742;15.242;2023-11-21T00:39:58;6.14;99.99
69335;SHT31;56477;52.742;15.242;2023-11-21T00:42:24;6.05;99.99
69335;SHT31;56477;52.742;15.242;2023-11-21T00:44:50;5.99;99.99
69335;SHT31;56477;52.742;15.242;2023-11-21T00:47:16;6.00;99.99
69335;SHT31;56477;52.742;15.242;2023-11-21T00:49:42;6.02;99.99
69335;SHT31;56477;52.742;15.242;2023-11-21T00:52:09;6.02;99.99
69335;SHT31;56477;52.742;15.242;2023-11-21T00:54:35;6.03;99.99
69335;SHT31;56477;52.742;15.242;2023-11-21T00:57:01;6.06;99.99
69335;SHT31;56477;52.742;15.242;2023-11-21T00:59:27;6.09;99.99
69335;SHT31;56477;52.742;15.242;2023-11-21T01:01:53;6.07;99.99
69335;SHT31;56477;52.742;15.242;2023-11-21T01:04:20;6.03;99.99
69335;SHT31;56477;52.742;15.242;2023-11-21T01:06:46;5.97;99.99
69335;SHT31;56477;52.742;15.242;2023-11-21T01:09:13;5.96;99.99
69335;SHT31;56477;52.742;15.242;2023-11-21T01:11:38;5.99;99.99
69335;SHT31;56477;52.742;15.242;2023-11-21T01:14:05;5.97;99.99
69335;SHT31;56477;52.742;15.242;2023-11-21T01:16:32;5.97;99.99
69335;SHT31;56477;52.742;15.242;2023-11-21T01:19:01;5.99;99.99
69335;SHT31;56477;52.742;15.242;2023-11-21T01:21:27;5.92;99.99
69335;SHT31;56477;52.742;15.242;2023-11-21T01:23:54;5.90;99.99
69335;SHT31;56477;52.742;15.242;2023-11-21T01:26:21;5.86;99.99
69335;SHT31;56477;52.742;15.242;2023-11-21T01:28:47;5.79;99.99
69335;SHT31;56477;52.742;15.242;2023-11-21T01:31:17;5.79;99.99
69335;SHT31;56477;52.742;15.242;2023-11-21T01:33:43;5.82;99.99
69335;SHT31;56477;52.742;15.242;2023-11-21T01:36:10;5.80;99.99
69335;SHT31;56477;52.742;15.242;2023-11-21T01:38:36;5.80;99.99
69335;SHT31;56477;52.742;15.242;2023-11-21T01:41:02;5.79;99.99
69335;SHT31;56477;52.742;15.242;2023-11-21T01:43:29;5.79;99.99
69335;SHT31;56477;52.742;15.242;2023-11-21T01:45:57;5.83;99.99
69335;SHT31;56477;52.742;15.242;2023-11-21T01:48:24;5.82;99.99
69335;SHT31;56477;52.742;15.242;2023-11-21T01:50:50;5.79;99.99
69335;SHT31;56477;52.742;15.242;2023-11-21T01:53:17;5.80;99.99
69335;SHT31;56477;52.742;15.242;2023-11-21T01:55:45;5.80;99.99
69335;SHT31;56477;52.742;15.242;2023-11-21T01:58:11;5.79;99.99
69335;SHT31;56477;52.742;15.242;2023-11-21T02:00:40;5.80;99.99
69335;SHT31;56477;52.742;15.242;2023-11-21T02:03:07;5.83;99.99
69335;SHT31;56477;52.742;15.242;2023-11-21T02:05:33;5.86;99.99
69335;SHT31;56477;52.742;15.242;2023-11-21T02:07:59;5.87;99.99
69335;SHT31;56477;52.742;15.242;2023-11-21T02:10:26;5.85;99.99
69335;SHT31;56477;52.742;15.242;2023-11-21T02:12:52;5.79;99.99
69335;SHT31;56477;52.742;15.242;2023-11-21T02:15:18;5.80;99.99
69335;SHT31;56477;52.742;15.242;2023-11-21T02:17:50;5.78;99.99
69335;SHT31;56477;52.742;15.242;2023-11-21T02:20:18;5.78;99.99
69335;SHT31;56477;52.742;15.242;2023-11-21T02:22:54;5.76;99.99
69335;SHT31;56477;52.742;15.242;2023-11-21T02:25:25;5.75;99.99
69335;SHT31;56477;52.742;15.242;2023-11-21T02:27:52;5.69;99.99
69335;SHT31;56477;52.742;15.242;2023-11-21T02:30:20;5.72;99.99
69335;SHT31;56477;52.742;15.242;2023-11-21T02:32:48;5.69;99.99
69335;SHT31;56477;52.742;15.242;2023-11-21T02:35:14;5.68;99.99
69335;SHT31;56477;52.742;15.242;2023-11-21T02:37:42;5.66;99.99
69335;SHT31;56477;52.742;15.242;2023-11-21T02:40:09;5.60;99.99
69335;SHT31;56477;52.742;15.242;2023-11-21T02:42:36;5.55;99.99
69335;SHT31;56477;52.742;15.242;2023-11-21T02:45:02;5.56;99.99
69335;SHT31;56477;52.742;15.242;2023-11-21T02:47:28;5.54;99.99
69335;SHT31;56477;52.742;15.242;2023-11-21T02:49:54;5.52;99.99
69335;SHT31;56477;52.742;15.242;2023-11-21T02:52:20;5.52;99.99
69335;SHT31;56477;52.742;15.242;2023-11-21T02:54:46;5.52;99.99
69335;SHT31;56477;52.742;15.242;2023-11-21T02:57:13;5.48;99.99
69335;SHT31;56477;52.742;15.242;2023-11-21T02:59:39;5.47;99.99
69335;SHT31;56477;52.742;15.242;2023-11-21T03:02:05;5.44;99.99
69335;SHT31;56477;52.742;15.242;2023-11-21T03:04:34;5.47;99.99
69335;SHT31;56477;52.742;15.242;2023-11-21T03:07:00;5.34;99.99
69335;SHT31;56477;52.742;15.242;2023-11-21T03:09:27;5.35;99.99
69335;SHT31;56477;52.742;15.242;2023-11-21T03:11:53;5.28;99.99
69335;SHT31;56477;52.742;15.242;2023-11-21T03:14:20;5.28;99.99
69335;SHT31;56477;52.742;15.242;2023-11-21T03:16:47;5.30;99.99
69335;SHT31;56477;52.742;15.242;2023-11-21T03:19:13;5.20;99.99
69335;SHT31;56477;52.742;15.242;2023-11-21T03:21:40;5.20;99.99
69335;SHT31;56477;52.742;15.242;2023-11-21T03:24:07;5.21;99.99
69335;SHT31;56477;52.742;15.242;2023-11-21T03:26:33;5.13;99.99
69335;SHT31;56477;52.742;15.242;2023-11-21T03:28:59;5.10;99.99
69335;SHT31;56477;52.742;15.242;2023-11-21T03:31:25;5.08;99.99
69335;SHT31;56477;52.742;15.242;2023-11-21T03:33:52;5.08;99.99
69335;SHT31;56477;52.742;15.242;2023-11-21T03:36:19;5.07;99.99
69335;SHT31;56477;52.742;15.242;2023-11-21T03:38:51;5.06;99.99
69335;SHT31;56477;52.742;15.242;2023-11-21T03:41:17;5.01;99.99
69335;SHT31;56477;52.742;15.242;2023-11-21T03:43:43;4.99;99.99
69335;SHT31;56477;52.742;15.242;2023-11-21T03:46:09;4.99;99.99
69335;SHT31;56477;52.742;15.242;2023-11-21T03:48:36;5.00;99.99
69335;SHT31;56477;52.742;15.242;2023-11-21T03:51:01;5.03;99.99
69335;SHT31;56477;52.742;15.242;2023-11-21T03:53:28;5.01;99.99
69335;SHT31;56477;52.742;15.242;2023-11-21T03:55:54;4.97;99.99
69335;SHT31;56477;52.742;15.242;2023-11-21T03:58:20;5.00;99.99
69335;SHT31;56477;52.742;15.242;2023-11-21T04:00:47;5.00;99.99
69335;SHT31;56477;52.742;15.242;2023-11-21T04:03:14;4.99;99.99
69335;SHT31;56477;52.742;15.242;2023-11-21T04:05:41;4.93;99.99
69335;SHT31;56477;52.742;15.242;2023-11-21T04:08:07;5.01;99.99
69335;SHT31;56477;52.742;15.242;2023-11-21T04:10:33;5.01;99.99
69335;SHT31;56477;52.742;15.242;2023-11-21T04:12:59;4.97;99.99
69335;SHT31;56477;52.742;15.242;2023-11-21T04:15:26;4.96;99.99
69335;SHT31;56477;52.742;15.242;2023-11-21T04:17:52;4.94;99.99
69335;SHT31;56477;52.742;15.242;2023-11-21T04:20:18;5.03;99.99
69335;SHT31;56477;52.742;15.242;2023-11-21T04:22:44;5.00;99.99
69335;SHT31;56477;52.742;15.242;2023-11-21T04:25:11;4.97;99.99
69335;SHT31;56477;52.742;15.242;2023-11-21T04:27:42;5.00;99.99
69335;SHT31;56477;52.742;15.242;2023-11-21T04:30:11;5.00;99.99
69335;SHT31;56477;52.742;15.242;2023-11-21T04:32:37;4.97;99.99
69335;SHT31;56477;52.742;15.242;2023-11-21T04:35:05;4.97;99.99
69335;SHT31;56477;52.742;15.242;2023-11-21T04:37:31;4.93;99.99
69335;SHT31;56477;52.742;15.242;2023-11-21T04:39:57;4.91;99.99
69335;SHT31;56477;52.742;15.242;2023-11-21T04:42:23;4.73;99.99
69335;SHT31;56477;52.742;15.242;2023-11-21T04:44:49;4.73;99.99
69335;SHT31;56477;52.742;15.242;2023-11-21T04:47:15;4.70;99.99
69335;SHT31;56477;52.742;15.242;2023-11-21T04:49:42;4.62;99.99
69335;SHT31;56477;52.742;15.242;2023-11-21T04:52:09;4.60;99.99
69335;SHT31;56477;52.742;15.242;2023-11-21T04:54:35;4.63;99.99
69335;SHT31;56477;52.742;15.242;2023-11-21T04:57:02;4.35;99.99
69335;SHT31;56477;52.742;15.242;2023-11-21T04:59:27;4.12;99.99
69335;SHT31;56477;52.742;15.242;2023-11-21T05:01:54;4.08;99.99
69335;SHT31;56477;52.742;15.242;2023-11-21T05:04:20;4.01;99.99
69335;SHT31;56477;52.742;15.242;2023-11-21T05:06:48;3.93;99.99
69335;SHT31;56477;52.742;15.242;2023-11-21T05:09:14;3.89;99.99
69335;SHT31;56477;52.742;15.242;2023-11-21T05:11:41;3.80;99.99
69335;SHT31;56477;52.742;15.242;2023-11-21T05:14:07;3.71;99.99
69335;SHT31;56477;52.742;15.242;2023-11-21T05:16:34;3.74;99.99
69335;SHT31;56477;52.742;15.242;2023-11-21T05:19:01;3.74;99.99
69335;SHT31;56477;52.742;15.242;2023-11-21T05:21:27;3.79;99.99
69335;SHT31;56477;52.742;15.242;2023-11-21T05:23:55;3.84;99.99
69335;SHT31;56477;52.742;15.242;2023-11-21T05:26:21;3.83;99.99
69335;SHT31;56477;52.742;15.242;2023-11-21T05:28:47;3.76;99.99
69335;SHT31;56477;52.742;15.242;2023-11-21T05:31:13;3.81;99.99
69335;SHT31;56477;52.742;15.242;2023-11-21T05:33:40;3.77;99.99
69335;SHT31;56477;52.742;15.242;2023-11-21T05:36:07;3.79;99.99
69335;SHT31;56477;52.742;15.242;2023-11-21T05:38:35;3.79;99.99
69335;SHT31;56477;52.742;15.242;2023-11-21T05:41:02;3.76;99.99
69335;SHT31;56477;52.742;15.242;2023-11-21T05:43:30;3.76;99.99
69335;SHT31;56477;52.742;15.242;2023-11-21T05:45:56;3.69;99.99
69335;SHT31;56477;52.742;15.242;2023-11-21T05:48:22;3.56;99.99
69335;SHT31;56477;52.742;15.242;2023-11-21T05:50:49;3.46;99.99
69335;SHT31;56477;52.742;15.242;2023-11-21T05:53:15;3.52;99.99
69335;SHT31;56477;52.742;15.242;2023-11-21T05:55:42;3.50;99.99
69335;SHT31;56477;52.742;15.242;2023-11-21T05:58:08;3.53;99.99
69335;SHT31;56477;52.742;15.242;2023-11-21T06:00:35;3.40;99.99
69335;SHT31;56477;52.742;15.242;2023-11-21T06:03:01;3.36;99.99
69335;SHT31;56477;52.742;15.242;2023-11-21T06:05:28;3.33;99.99
69335;SHT31;56477;52.742;15.242;2023-11-21T06:07:56;3.36;99.99
69335;SHT31;56477;52.742;15.242;2023-11-21T06:10:25;3.29;99.99
69335;SHT31;56477;52.742;15.242;2023-11-21T06:12:51;3.23;99.99
69335;SHT31;56477;52.742;15.242;2023-11-21T06:15:17;3.26;99.99
69335;SHT31;56477;52.742;15.242;2023-11-21T06:17:46;3.21;99.99
69335;SHT31;56477;52.742;15.242;2023-11-21T06:20:15;3.18;99.99
69335;SHT31;56477;52.742;15.242;2023-11-21T06:22:50;3.07;99.99
69335;SHT31;56477;52.742;15.242;2023-11-21T06:25:17;3.05;99.99
69335;SHT31;56477;52.742;15.242;2023-11-21T06:27:45;3.07;99.99
69335;SHT31;56477;52.742;15.242;2023-11-21T06:30:12;3.08;99.99
69335;SHT31;56477;52.742;15.242;2023-11-21T06:32:39;3.08;99.99
69335;SHT31;56477;52.742;15.242;2023-11-21T06:35:06;3.07;99.99
69335;SHT31;56477;52.742;15.242;2023-11-21T06:37:34;2.94;99.99
69335;SHT31;56477;52.742;15.242;2023-11-21T06:40:00;2.97;99.99
69335;SHT31;56477;52.742;15.242;2023-11-21T06:42:27;2.97;99.99
69335;SHT31;56477;52.742;15.242;2023-11-21T06:44:53;3.00;99.99
69335;SHT31;56477;52.742;15.242;2023-11-21T06:47:23;3.04;99.99
69335;SHT31;56477;52.742;15.242;2023-11-21T06:49:52;3.00;99.99
69335;SHT31;56477;52.742;15.242;2023-11-21T06:52:19;2.84;99.99
69335;SHT31;56477;52.742;15.242;2023-11-21T06:54:46;2.88;99.99
69335;SHT31;56477;52.742;15.242;2023-11-21T06:57:13;2.94;99.99
69335;SHT31;56477;52.742;15.242;2023-11-21T06:59:39;2.90;99.99
69335;SHT31;56477;52.742;15.242;2023-11-21T07:02:06;2.95;99.99
69335;SHT31;56477;52.742;15.242;2023-11-21T07:04:36;2.92;99.99
69335;SHT31;56477;52.742;15.242;2023-11-21T07:07:03;2.98;99.99
69335;SHT31;56477;52.742;15.242;2023-11-21T07:09:30;2.95;99.99
69335;SHT31;56477;52.742;15.242;2023-11-21T07:11:56;2.97;99.99
69335;SHT31;56477;52.742;15.242;2023-11-21T07:14:23;2.94;99.99
69335;SHT31;56477;52.742;15.242;2023-11-21T07:16:48;2.90;99.99
69335;SHT31;56477;52.742;15.242;2023-11-21T07:19:15;2.85;99.99
69335;SHT31;56477;52.742;15.242;2023-11-21T07:21:41;2.92;99.99
69335;SHT31;56477;52.742;15.242;2023-11-21T07:24:07;2.92;99.99
69335;SHT31;56477;52.742;15.242;2023-11-21T07:26:34;2.88;99.99
69335;SHT31;56477;52.742;15.242;2023-11-21T07:29:02;2.83;99.99
69335;SHT31;56477;52.742;15.242;2023-11-21T07:31:29;2.87;99.99
69335;SHT31;56477;52.742;15.242;2023-11-21T07:33:55;2.83;99.99
69335;SHT31;56477;52.742;15.242;2023-11-21T07:36:24;2.85;99.99
69335;SHT31;56477;52.742;15.242;2023-11-21T07:38:51;2.80;99.99
69335;SHT31;56477;52.742;15.242;2023-11-21T07:41:19;2.79;99.99
69335;SHT31;56477;52.742;15.242;2023-11-21T07:43:46;2.84;99.99
69335;SHT31;56477;52.742;15.242;2023-11-21T07:46:13;2.84;99.99
69335;SHT31;56477;52.742;15.242;2023-11-21T07:48:40;2.73;99.99
69335;SHT31;56477;52.742;15.242;2023-11-21T07:51:07;2.76;99.99
69335;SHT31;56477;52.742;15.242;2023-11-21T07:53:34;2.76;99.99
69335;SHT31;56477;52.742;15.242;2023-11-21T07:56:07;2.74;99.99
69335;SHT31;56477;52.742;15.242;2023-11-21T07:58:37;2.71;99.99
69335;SHT31;56477;52.742;15.242;2023-11-21T08:01:03;2.80;99.99
69335;SHT31;56477;52.742;15.242;2023-11-21T08:03:30;2.80;99.99
69335;SHT31;56477;52.742;15.242;2023-11-21T08:05:58;2.77;99.99
69335;SHT31;56477;52.742;15.242;2023-11-21T08:08:24;2.76;99.99
69335;SHT31;56477;52.742;15.242;2023-11-21T08:10:51;2.76;99.99
69335;SHT31;56477;52.742;15.242;2023-11-21T08:13:24;2.74;99.99
69335;SHT31;56477;52.742;15.242;2023-11-21T08:15:50;2.68;99.99
69335;SHT31;56477;52.742;15.242;2023-11-21T08:18:17;2.67;99.99
69335;SHT31;56477;52.742;15.242;2023-11-21T08:20:44;2.65;99.99
69335;SHT31;56477;52.742;15.242;2023-11-21T08:23:16;2.64;99.99
69335;SHT31;56477;52.742;15.242;2023-11-21T08:25:45;2.56;99.93
69335;SHT31;56477;52.742;15.242;2023-11-21T08:28:12;2.58;99.95
69335;SHT31;56477;52.742;15.242;2023-11-21T08:30:42;2.54;99.71
69335;SHT31;56477;52.742;15.242;2023-11-21T08:33:08;2.52;99.89
69335;SHT31;56477;52.742;15.242;2023-11-21T08:35:35;2.50;99.99
69335;SHT31;56477;52.742;15.242;2023-11-21T08:38:02;2.46;99.64
69335;SHT31;56477;52.742;15.242;2023-11-21T08:40:29;2.37;99.28
69335;SHT31;56477;52.742;15.242;2023-11-21T08:42:56;2.42;99.49
69335;SHT31;56477;52.742;15.242;2023-11-21T08:45:25;2.36;99.24
69335;SHT31;56477;52.742;15.242;2023-11-21T08:47:52;2.37;99.41
69335;SHT31;56477;52.742;15.242;2023-11-21T08:50:18;2.37;99.21
69335;SHT31;56477;52.742;15.242;2023-11-21T08:52:45;2.43;99.70
69335;SHT31;56477;52.742;15.242;2023-11-21T08:55:14;2.43;99.66
69335;SHT31;56477;52.742;15.242;2023-11-21T08:57:43;2.36;98.94
69335;SHT31;56477;52.742;15.242;2023-11-21T09:00:10;2.39;99.49
69335;SHT31;56477;52.742;15.242;2023-11-21T09:02:40;2.39;99.51
69335;SHT31;56477;52.742;15.242;2023-11-21T09:05:13;2.29;98.72
69335;SHT31;56477;52.742;15.242;2023-11-21T09:07:41;2.36;99.09
69335;SHT31;56477;52.742;15.242;2023-11-21T09:10:08;2.34;99.38
69335;SHT31;56477;52.742;15.242;2023-11-21T09:12:37;2.37;99.03
69335;SHT31;56477;52.742;15.242;2023-11-21T09:15:05;2.37;99.07
69335;SHT31;56477;52.742;15.242;2023-11-21T09:17:34;2.43;99.33
69335;SHT31;56477;52.742;15.242;2023-11-21T09:20:00;2.43;99.21
69335;SHT31;56477;52.742;15.242;2023-11-21T09:22:26;2.40;98.92
69335;SHT31;56477;52.742;15.242;2023-11-21T09:24:55;2.39;98.77
69335;SHT31;56477;52.742;15.242;2023-11-21T09:27:24;2.46;99.14
69335;SHT31;56477;52.742;15.242;2023-11-21T09:29:51;2.53;99.46
69335;SHT31;56477;52.742;15.242;2023-11-21T09:32:20;2.52;99.28
69335;SHT31;56477;52.742;15.242;2023-11-21T09:34:50;2.54;99.22
69335;SHT31;56477;52.742;15.242;2023-11-21T09:37:16;2.40;99.30
69335;SHT31;56477;52.742;15.242;2023-11-21T09:39:42;2.50;99.47
69335;SHT31;56477;52.742;15.242;2023-11-21T09:42:36;2.53;99.70
69335;SHT31;56477;52.742;15.242;2023-11-21T09:45:29;2.52;99.45
69335;SHT31;56477;52.742;15.242;2023-11-21T09:48:00;2.46;99.15
69335;SHT31;56477;52.742;15.242;2023-11-21T09:50:27;2.39;99.54
69335;SHT31;56477;52.742;15.242;2023-11-21T09:52:58;2.44;99.15
69335;SHT31;56477;52.742;15.242;2023-11-21T09:55:27;2.42;99.23
69335;SHT31;56477;52.742;15.242;2023-11-21T09:58:03;2.33;99.34
69335;SHT31;56477;52.742;15.242;2023-11-21T10:00:30;2.36;99.23
69335;SHT31;56477;52.742;15.242;2023-11-21T10:02:59;2.36;99.29
69335;SHT31;56477;52.742;15.242;2023-11-21T10:05:25;2.29;99.38
69335;SHT31;56477;52.742;15.242;2023-11-21T10:07:53;2.18;99.49
69335;SHT31;56477;52.742;15.242;2023-11-21T10:10:23;2.13;99.37
69335;SHT31;56477;52.742;15.242;2023-11-21T10:12:57;2.11;99.90
69335;SHT31;56477;52.742;15.242;2023-11-21T10:15:25;2.06;99.91
69335;SHT31;56477;52.742;15.242;2023-11-21T10:17:53;2.06;99.88
69335;SHT31;56477;52.742;15.242;2023-11-21T10:20:21;1.97;99.99
69335;SHT31;56477;52.742;15.242;2023-11-21T10:22:48;2.16;99.99
69335;SHT31;56477;52.742;15.242;2023-11-21T10:25:14;2.13;99.99
69335;SHT31;56477;52.742;15.242;2023-11-21T10:27:41;2.16;99.99
69335;SHT31;56477;52.742;15.242;2023-11-21T10:30:09;2.28;99.99
69335;SHT31;56477;52.742;15.242;2023-11-21T10:32:39;2.36;99.89
69335;SHT31;56477;52.742;15.242;2023-11-21T10:35:07;2.25;99.48
69335;SHT31;56477;52.742;15.242;2023-11-21T10:37:39;2.16;99.32
69335;SHT31;56477;52.742;15.242;2023-11-21T10:40:09;2.13;99.39
69335;SHT31;56477;52.742;15.242;2023-11-21T10:42:39;2.21;99.88
69335;SHT31;56477;52.742;15.242;2023-11-21T10:45:06;2.02;99.45
69335;SHT31;56477;52.742;15.242;2023-11-21T10:47:44;1.99;99.15
69335;SHT31;56477;52.742;15.242;2023-11-21T10:50:10;2.04;99.65
69335;SHT31;56477;52.742;15.242;2023-11-21T10:52:39;2.05;99.84
69335;SHT31;56477;52.742;15.242;2023-11-21T10:55:18;1.95;99.18
69335;SHT31;56477;52.742;15.242;2023-11-21T10:57:49;1.89;99.29
69335;SHT31;56477;52.742;15.242;2023-11-21T11:00:17;1.91;99.14
69335;SHT31;56477;52.742;15.242;2023-11-21T11:02:53;1.84;98.99
69335;SHT31;56477;52.742;15.242;2023-11-21T11:05:21;1.75;99.01
69335;SHT31;56477;52.742;15.242;2023-11-21T11:08:00;1.78;99.05
69335;SHT31;56477;52.742;15.242;2023-11-21T11:10:28;1.73;99.31
69335;SHT31;56477;52.742;15.242;2023-11-21T11:12:58;1.81;99.44
69335;SHT31;56477;52.742;15.242;2023-11-21T11:15:26;1.88;99.67
69335;SHT31;56477;52.742;15.242;2023-11-21T11:17:53;1.91;99.47
69335;SHT31;56477;52.742;15.242;2023-11-21T11:20:24;2.01;99.63
69335;SHT31;56477;52.742;15.242;2023-11-21T11:34:29;2.02;99.58
69335;SHT31;56477;52.742;15.242;2023-11-21T11:37:06;2.13;99.82
69335;SHT31;56477;52.742;15.242;2023-11-21T11:39:40;2.06;99.92
69335;SHT31;56477;52.742;15.242;2023-11-21T11:42:17;2.15;99.99
69335;SHT31;56477;52.742;15.242;2023-11-21T11:47:32;2.13;99.98
69335;SHT31;56477;52.742;15.242;2023-11-21T11:50:07;2.12;99.33
69335;SHT31;56477;52.742;15.242;2023-11-21T11:52:41;2.13;99.18
69335;SHT31;56477;52.742;15.242;2023-11-21T11:55:12;2.09;99.35
69335;SHT31;56477;52.742;15.242;2023-11-21T11:57:40;2.11;99.08
69335;SHT31;56477;52.742;15.242;2023-11-21T12:02:48;1.99;98.79
69335;SHT31;56477;52.742;15.242;2023-11-21T12:05:16;2.01;99.17
69335;SHT31;56477;52.742;15.242;2023-11-21T12:10:18;1.94;99.39
69335;SHT31;56477;52.742;15.242;2023-11-21T12:12:52;1.77;98.56
69335;SHT31;56477;52.742;15.242;2023-11-21T12:15:19;1.70;99.36
69335;SHT31;56477;52.742;15.242;2023-11-21T12:17:46;1.78;99.17
69335;SHT31;56477;52.742;15.242;2023-11-21T12:20:13;1.68;99.26
69335;SHT31;56477;52.742;15.242;2023-11-21T12:22:53;1.71;99.52
69335;SHT31;56477;52.742;15.242;2023-11-21T12:25:24;1.67;99.72
69335;SHT31;56477;52.742;15.242;2023-11-21T12:27:52;1.77;99.65
69335;SHT31;56477;52.742;15.242;2023-11-21T12:30:21;1.67;99.27
69335;SHT31;56477;52.742;15.242;2023-11-21T12:32:52;1.67;99.66
69335;SHT31;56477;52.742;15.242;2023-11-21T12:35:21;1.55;99.69
69335;SHT31;56477;52.742;15.242;2023-11-21T12:37:48;1.58;99.40
69335;SHT31;56477;52.742;15.242;2023-11-21T12:40:15;1.55;99.29
69335;SHT31;56477;52.742;15.242;2023-11-21T12:42:46;1.50;99.24
69335;SHT31;56477;52.742;15.242;2023-11-21T12:47:44;1.39;99.99
69335;SHT31;56477;52.742;15.242;2023-11-21T12:50:25;1.40;99.93
69335;SHT31;56477;52.742;15.242;2023-11-21T12:52:58;1.36;99.47
69335;SHT31;56477;52.742;15.242;2023-11-21T12:55:25;1.27;98.92
69335;SHT31;56477;52.742;15.242;2023-11-21T12:57:55;1.32;99.34
69335;SHT31;56477;52.742;15.242;2023-11-21T13:00:45;1.34;99.20
69335;SHT31;56477;52.742;15.242;2023-11-21T13:03:13;1.30;99.41
69335;SHT31;56477;52.742;15.242;2023-11-21T13:05:45;1.26;99.78
69335;SHT31;56477;52.742;15.242;2023-11-21T13:08:12;1.29;99.72
69335;SHT31;56477;52.742;15.242;2023-11-21T13:10:43;1.27;99.60
69335;SHT31;56477;52.742;15.242;2023-11-21T13:13:13;1.26;99.58
69335;SHT31;56477;52.742;15.242;2023-11-21T13:15:51;1.30;99.54
69335;SHT31;56477;52.742;15.242;2023-11-21T13:18:21;1.29;99.67
69335;SHT31;56477;52.742;15.242;2023-11-21T13:20:47;1.32;99.03
69335;SHT31;56477;52.742;15.242;2023-11-21T13:23:13;1.32;99.27
69335;SHT31;56477;52.742;15.242;2023-11-21T13:25:43;1.34;99.01
69335;SHT31;56477;52.742;15.242;2023-11-21T13:28:11;1.27;99.43
69335;SHT31;56477;52.742;15.242;2023-11-21T13:30:49;1.19;99.44
69335;SHT31;56477;52.742;15.242;2023-11-21T13:33:18;1.16;99.47
69335;SHT31;56477;52.742;15.242;2023-11-21T13:35:47;1.19;99.74
69335;SHT31;56477;52.742;15.242;2023-11-21T13:38:16;1.20;99.57
69335;SHT31;56477;52.742;15.242;2023-11-21T13:40:47;1.23;99.52
69335;SHT31;56477;52.742;15.242;2023-11-21T13:43:18;1.25;99.28
69335;SHT31;56477;52.742;15.242;2023-11-21T13:45:47;1.27;98.92
69335;SHT31;56477;52.742;15.242;2023-11-21T13:48:15;1.30;99.02
69335;SHT31;56477;52.742;15.242;2023-11-21T13:50:51;1.30;98.69
69335;SHT31;56477;52.742;15.242;2023-11-21T13:53:36;1.26;99.22
69335;SHT31;56477;52.742;15.242;2023-11-21T13:56:05;1.27;99.38
69335;SHT31;56477;52.742;15.242;2023-11-21T13:58:31;1.32;99.38
69335;SHT31;56477;52.742;15.242;2023-11-21T14:01:26;1.26;99.28
69335;SHT31;56477;52.742;15.242;2023-11-21T14:03:59;1.27;99.37
69335;SHT31;56477;52.742;15.242;2023-11-21T14:06:50;1.25;99.04
69335;SHT31;56477;52.742;15.242;2023-11-21T14:09:23;1.22;98.66
69335;SHT31;56477;52.742;15.242;2023-11-21T14:11:58;1.26;98.41
69335;SHT31;56477;52.742;15.242;2023-11-21T14:14:26;1.17;98.74
69335;SHT31;56477;52.742;15.242;2023-11-21T14:16:55;1.23;99.08
69335;SHT31;56477;52.742;15.242;2023-11-21T14:19:25;1.22;98.71
69335;SHT31;56477;52.742;15.242;2023-11-21T14:21:58;1.23;98.65
69335;SHT31;56477;52.742;15.242;2023-11-21T14:24:24;1.20;98.66
69335;SHT31;56477;52.742;15.242;2023-11-21T14:26:51;1.26;98.62
69335;SHT31;56477;52.742;15.242;2023-11-21T14:29:18;1.25;98.25
69335;SHT31;56477;52.742;15.242;2023-11-21T14:31:49;1.22;97.73
69335;SHT31;56477;52.742;15.242;2023-11-21T14:34:22;1.26;97.99
69335;SHT31;56477;52.742;15.242;2023-11-21T14:36:49;1.26;97.67
69335;SHT31;56477;52.742;15.242;2023-11-21T14:39:15;1.23;97.63
69335;SHT31;56477;52.742;15.242;2023-11-21T14:41:54;1.26;97.61
69335;SHT31;56477;52.742;15.242;2023-11-21T14:44:25;1.23;96.81
69335;SHT31;56477;52.742;15.242;2023-11-21T14:46:54;1.20;97.24
69335;SHT31;56477;52.742;15.242;2023-11-21T14:49:22;1.20;97.17
69335;SHT31;56477;52.742;15.242;2023-11-21T14:51:52;1.20;97.29
69335;SHT31;56477;52.742;15.242;2023-11-21T14:54:48;1.20;96.87
69335;SHT31;56477;52.742;15.242;2023-11-21T14:57:25;1.07;94.96
69335;SHT31;56477;52.742;15.242;2023-11-21T14:59:52;1.17;95.83
69335;SHT31;56477;52.742;15.242;2023-11-21T15:02:23;1.15;96.36
69335;SHT31;56477;52.742;15.242;2023-11-21T15:05:08;1.22;96.24
69335;SHT31;56477;52.742;15.242;2023-11-21T15:07:41;1.16;95.88
69335;SHT31;56477;52.742;15.242;2023-11-21T15:10:07;1.10;95.86
69335;SHT31;56477;52.742;15.242;2023-11-21T15:12:41;1.07;96.51
69335;SHT31;56477;52.742;15.242;2023-11-21T15:15:08;1.07;95.80
69335;SHT31;56477;52.742;15.242;2023-11-21T15:17:36;1.17;95.92
69335;SHT31;56477;52.742;15.242;2023-11-21T15:20:03;1.12;95.78
69335;SHT31;56477;52.742;15.242;2023-11-21T15:22:32;1.13;96.20
69335;SHT31;56477;52.742;15.242;2023-11-21T15:24:58;1.12;96.38
69335;SHT31;56477;52.742;15.242;2023-11-21T15:27:26;1.13;95.83
69335;SHT31;56477;52.742;15.242;2023-11-21T15:29:53;1.12;95.99
69335;SHT31;56477;52.742;15.242;2023-11-21T15:32:19;1.12;96.16
69335;SHT31;56477;52.742;15.242;2023-11-21T15:34:47;1.07;95.89
69335;SHT31;56477;52.742;15.242;2023-11-21T15:37:13;1.15;95.90
69335;SHT31;56477;52.742;15.242;2023-11-21T15:39:39;1.17;95.66
69335;SHT31;56477;52.742;15.242;2023-11-21T15:42:05;1.16;96.00
69335;SHT31;56477;52.742;15.242;2023-11-21T15:44:33;1.13;96.55
69335;SHT31;56477;52.742;15.242;2023-11-21T15:46:59;1.12;96.81
69335;SHT31;56477;52.742;15.242;2023-11-21T15:49:26;1.13;96.26
69335;SHT31;56477;52.742;15.242;2023-11-21T15:51:53;1.17;96.43
69335;SHT31;56477;52.742;15.242;2023-11-21T15:54:22;1.22;96.71
69335;SHT31;56477;52.742;15.242;2023-11-21T15:56:49;1.13;96.21
69335;SHT31;56477;52.742;15.242;2023-11-21T15:59:15;1.26;96.08